sensor_id;sensor_type;location;lat;lon;timestamp;P1;durP1;ratioP1;P2;durP2;ratioP2
2564;SDS011;1292;48.020;7.822;2023-08-20T05:45:25;8.27;;;7.47;;
2564;SDS011;1292;48.020;7.822;2023-08-20T05:47:51;8.13;;;7.43;;
2564;SDS011;1292;48.020;7.822;2023-08-20T05:50:18;8.40;;;7.60;;
2564;SDS011;1292;48.020;7.822;2023-08-20T05:52:45;7.97;;;7.27;;
2564;SDS011;1292;48.020;7.822;2023-08-20T05:55:13;7.20;;;6.50;;
2564;SDS011;1292;48.020;7.822;2023-08-20T05:57:40;9.63;;;7.33;;
2564;SDS011;1292;48.020;7.822;2023-08-20T06:00:08;8.70;;;7.90;;
2564;SDS011;1292;48.020;7.822;2023-08-20T06:02:37;9.40;;;7.90;;
2564;SDS011;1292;48.020;7.822;2023-08-20T06:05:04;8.50;;;7.80;;
2564;SDS011;1292;48.020;7.822;2023-08-20T06:07:31;7.23;;;6.63;;
2564;SDS011;1292;48.020;7.822;2023-08-20T06:09:57;8.77;;;7.97;;
2564;SDS011;1292;48.020;7.822;2023-08-20T06:12:24;12.33;;;7.97;;
2564;SDS011;1292;48.020;7.822;2023-08-20T06:14:51;7.10;;;6.43;;
2564;SDS011;1292;48.020;7.822;2023-08-20T06:17:18;7.77;;;7.10;;
2564;SDS011;1292;48.020;7.822;2023-08-20T06:19:47;7.37;;;6.67;;
2564;SDS011;1292;48.020;7.822;2023-08-20T06:22:14;7.93;;;7.23;;
2564;SDS011;1292;48.020;7.822;2023-08-20T06:24:40;8.97;;;8.20;;
2564;SDS011;1292;48.020;7.822;2023-08-20T06:27:07;8.03;;;7.37;;
2564;SDS011;1292;48.020;7.822;2023-08-20T06:29:34;8.53;;;6.97;;
2564;SDS011;1292;48.020;7.822;2023-08-20T06:32:01;7.97;;;7.20;;
2564;SDS011;1292;48.020;7.822;2023-08-20T06:34:28;7.37;;;6.70;;
2564;SDS011;1292;48.020;7.822;2023-08-20T06:36:56;8.70;;;7.90;;
2564;SDS011;1292;48.020;7.822;2023-08-20T06:39:23;6.90;;;6.30;;
2564;SDS011;1292;48.020;7.822;2023-08-20T06:41:50;7.97;;;7.10;;
2564;SDS011;1292;48.020;7.822;2023-08-20T06:44:16;7.67;;;6.90;;
2564;SDS011;1292;48.020;7.822;2023-08-20T06:46:43;9.30;;;6.60;;
2564;SDS011;1292;48.020;7.822;2023-08-20T06:49:10;8.17;;;7.40;;
2564;SDS011;1292;48.020;7.822;2023-08-20T06:51:37;7.30;;;6.77;;
2564;SDS011;1292;48.020;7.822;2023-08-20T06:54:05;7.40;;;6.60;;
2564;SDS011;1292;48.020;7.822;2023-08-20T06:56:32;7.60;;;7.00;;
2564;SDS011;1292;48.020;7.822;2023-08-20T06:59:00;7.80;;;7.10;;
2564;SDS011;1292;48.020;7.822;2023-08-20T07:01:28;7.70;;;7.03;;
2564;SDS011;1292;48.020;7.822;2023-08-20T07:03:55;11.80;;;7.00;;
2564;SDS011;1292;48.020;7.822;2023-08-20T07:06:21;7.70;;;6.70;;
2564;SDS011;1292;48.020;7.822;2023-08-20T07:08:49;9.33;;;7.17;;
2564;SDS011;1292;48.020;7.822;2023-08-20T07:11:17;8.60;;;7.90;;
2564;SDS011;1292;48.020;7.822;2023-08-20T07:13:44;8.13;;;7.33;;
2564;SDS011;1292;48.020;7.822;2023-08-20T07:16:10;17.60;;;7.90;;
2564;SDS011;1292;48.020;7.822;2023-08-20T07:18:37;8.70;;;7.90;;
2564;SDS011;1292;48.020;7.822;2023-08-20T07:21:04;7.60;;;6.90;;
2564;SDS011;1292;48.020;7.822;2023-08-20T07:23:32;7.67;;;6.97;;
2564;SDS011;1292;48.020;7.822;2023-08-20T07:26:06;8.13;;;7.40;;
2564;SDS011;1292;48.020;7.822;2023-08-20T07:28:35;8.77;;;7.80;;
2564;SDS011;1292;48.020;7.822;2023-08-20T07:31:20;8.77;;;8.07;;
2564;SDS011;1292;48.020;7.822;2023-08-20T07:33:47;8.67;;;7.80;;
2564;SDS011;1292;48.020;7.822;2023-08-20T07:36:14;9.13;;;7.67;;
2564;SDS011;1292;48.020;7.822;2023-08-20T07:38:43;9.03;;;8.27;;
2564;SDS011;1292;48.020;7.822;2023-08-20T07:41:10;7.87;;;7.17;;
2564;SDS011;1292;48.020;7.822;2023-08-20T07:43:39;9.57;;;8.67;;
2564;SDS011;1292;48.020;7.822;2023-08-20T07:46:07;8.10;;;7.43;;
2564;SDS011;1292;48.020;7.822;2023-08-20T07:48:34;9.00;;;8.13;;
2564;SDS011;1292;48.020;7.822;2023-08-20T07:51:01;7.70;;;7.10;;
2564;SDS011;1292;48.020;7.822;2023-08-20T07:53:29;7.90;;;7.30;;
2564;SDS011;1292;48.020;7.822;2023-08-20T07:55:56;8.40;;;7.80;;
2564;SDS011;1292;48.020;7.822;2023-08-20T07:58:23;7.37;;;6.77;;
2564;SDS011;1292;48.020;7.822;2023-08-20T08:00:52;8.40;;;7.57;;
2564;SDS011;1292;48.020;7.822;2023-08-20T08:03:19;8.57;;;7.67;;
2564;SDS011;1292;48.020;7.822;2023-08-20T08:05:46;9.07;;;8.27;;
2564;SDS011;1292;48.020;7.822;2023-08-20T08:08:14;10.87;;;7.90;;
2564;SDS011;1292;48.020;7.822;2023-08-20T08:10:41;8.47;;;7.70;;
2564;SDS011;1292;48.020;7.822;2023-08-20T08:13:09;10.27;;;9.27;;
2564;SDS011;1292;48.020;7.822;2023-08-20T08:15:36;8.40;;;7.57;;
2564;SDS011;1292;48.020;7.822;2023-08-20T08:18:06;8.03;;;7.20;;
2564;SDS011;1292;48.020;7.822;2023-08-20T08:20:34;7.73;;;7.13;;
2564;SDS011;1292;48.020;7.822;2023-08-20T08:23:01;7.30;;;6.80;;
2564;SDS011;1292;48.020;7.822;2023-08-20T08:25:28;7.90;;;7.10;;
2564;SDS011;1292;48.020;7.822;2023-08-20T08:27:55;8.70;;;8.00;;
2564;SDS011;1292;48.020;7.822;2023-08-20T08:30:22;7.77;;;7.07;;
2564;SDS011;1292;48.020;7.822;2023-08-20T08:32:49;10.43;;;8.40;;
2564;SDS011;1292;48.020;7.822;2023-08-20T08:35:18;8.07;;;7.30;;
2564;SDS011;1292;48.020;7.822;2023-08-20T08:37:46;8.80;;;8.00;;
2564;SDS011;1292;48.020;7.822;2023-08-20T08:40:13;8.23;;;7.53;;
2564;SDS011;1292;48.020;7.822;2023-08-20T08:42:40;8.00;;;7.20;;
2564;SDS011;1292;48.020;7.822;2023-08-20T08:45:08;8.20;;;7.60;;
2564;SDS011;1292;48.020;7.822;2023-08-20T08:47:36;7.30;;;6.73;;
2564;SDS011;1292;48.020;7.822;2023-08-20T08:50:06;9.20;;;6.70;;
2564;SDS011;1292;48.020;7.822;2023-08-20T08:52:36;8.60;;;7.70;;
2564;SDS011;1292;48.020;7.822;2023-08-20T08:55:05;8.97;;;8.17;;
2564;SDS011;1292;48.020;7.822;2023-08-20T08:57:34;8.43;;;7.73;;
2564;SDS011;1292;48.020;7.822;2023-08-20T09:00:01;10.20;;;7.07;;
2564;SDS011;1292;48.020;7.822;2023-08-20T09:02:29;8.23;;;7.50;;
2564;SDS011;1292;48.020;7.822;2023-08-20T09:04:56;8.10;;;7.40;;
2564;SDS011;1292;48.020;7.822;2023-08-20T09:07:24;10.40;;;7.67;;
2564;SDS011;1292;48.020;7.822;2023-08-20T09:09:56;8.43;;;7.60;;
2564;SDS011;1292;48.020;7.822;2023-08-20T09:12:25;7.83;;;7.13;;
2564;SDS011;1292;48.020;7.822;2023-08-20T09:14:52;9.50;;;6.70;;
2564;SDS011;1292;48.020;7.822;2023-08-20T09:17:24;7.33;;;6.70;;
2564;SDS011;1292;48.020;7.822;2023-08-20T09:19:53;6.93;;;6.50;;
2564;SDS011;1292;48.020;7.822;2023-08-20T09:22:21;6.50;;;6.10;;
2564;SDS011;1292;48.020;7.822;2023-08-20T09:24:53;6.67;;;6.17;;
2564;SDS011;1292;48.020;7.822;2023-08-20T09:27:21;7.20;;;6.53;;
2564;SDS011;1292;48.020;7.822;2023-08-20T09:29:49;8.30;;;6.73;;
2564;SDS011;1292;48.020;7.822;2023-08-20T09:32:17;7.00;;;6.40;;
2564;SDS011;1292;48.020;7.822;2023-08-20T09:34:45;8.30;;;7.50;;
2564;SDS011;1292;48.020;7.822;2023-08-20T09:37:13;7.13;;;5.87;;
2564;SDS011;1292;48.020;7.822;2023-08-20T09:39:42;6.83;;;6.10;;
2564;SDS011;1292;48.020;7.822;2023-08-20T09:42:10;7.60;;;6.80;;
2564;SDS011;1292;48.020;7.822;2023-08-20T09:44:38;6.17;;;5.70;;
2564;SDS011;1292;48.020;7.822;2023-08-20T09:47:07;6.77;;;6.23;;
2564;SDS011;1292;48.020;7.822;2023-08-20T09:49:38;7.43;;;5.93;;
2564;SDS011;1292;48.020;7.822;2023-08-20T09:52:06;6.77;;;6.00;;
2564;SDS011;1292;48.020;7.822;2023-08-20T09:54:47;9.00;;;6.87;;
2564;SDS011;1292;48.020;7.822;2023-08-20T09:57:31;6.50;;;6.00;;
2564;SDS011;1292;48.020;7.822;2023-08-20T10:00:00;8.80;;;6.40;;
2564;SDS011;1292;48.020;7.822;2023-08-20T10:02:27;7.00;;;6.50;;
2564;SDS011;1292;48.020;7.822;2023-08-20T10:04:55;8.23;;;6.43;;
2564;SDS011;1292;48.020;7.822;2023-08-20T10:07:24;6.33;;;5.43;;
2564;SDS011;1292;48.020;7.822;2023-08-20T10:10:00;7.07;;;6.37;;
2564;SDS011;1292;48.020;7.822;2023-08-20T10:12:30;9.03;;;6.60;;
2564;SDS011;1292;48.020;7.822;2023-08-20T10:15:00;7.87;;;7.20;;
2564;SDS011;1292;48.020;7.822;2023-08-20T10:17:28;7.40;;;6.77;;
2564;SDS011;1292;48.020;7.822;2023-08-20T10:19:57;8.40;;;6.57;;
2564;SDS011;1292;48.020;7.822;2023-08-20T10:22:33;6.97;;;6.27;;
2564;SDS011;1292;48.020;7.822;2023-08-20T10:25:04;6.40;;;5.90;;
2564;SDS011;1292;48.020;7.822;2023-08-20T10:27:34;5.80;;;5.30;;
2564;SDS011;1292;48.020;7.822;2023-08-20T10:30:07;7.23;;;6.37;;
2564;SDS011;1292;48.020;7.822;2023-08-20T10:32:43;6.70;;;6.20;;
2564;SDS011;1292;48.020;7.822;2023-08-20T10:35:12;6.87;;;5.70;;
2564;SDS011;1292;48.020;7.822;2023-08-20T10:43:30;6.03;;;5.53;;
2564;SDS011;1292;48.020;7.822;2023-08-20T10:46:07;10.63;;;6.83;;
2564;SDS011;1292;48.020;7.822;2023-08-20T10:48:40;6.30;;;5.80;;
2564;SDS011;1292;48.020;7.822;2023-08-20T10:51:11;7.00;;;5.93;;
2564;SDS011;1292;48.020;7.822;2023-08-20T10:53:40;7.93;;;4.87;;
2564;SDS011;1292;48.020;7.822;2023-08-20T10:56:11;5.83;;;5.30;;
2564;SDS011;1292;48.020;7.822;2023-08-20T10:58:45;6.60;;;6.00;;
2564;SDS011;1292;48.020;7.822;2023-08-20T11:01:16;7.97;;;6.23;;
2564;SDS011;1292;48.020;7.822;2023-08-20T11:03:46;6.50;;;5.93;;
2564;SDS011;1292;48.020;7.822;2023-08-20T11:06:15;7.50;;;5.10;;
2564;SDS011;1292;48.020;7.822;2023-08-20T11:08:42;6.37;;;5.70;;
2564;SDS011;1292;48.020;7.822;2023-08-20T11:11:11;6.47;;;5.83;;
2564;SDS011;1292;48.020;7.822;2023-08-20T11:13:38;5.70;;;5.30;;
2564;SDS011;1292;48.020;7.822;2023-08-20T11:16:06;5.90;;;5.30;;
2564;SDS011;1292;48.020;7.822;2023-08-20T11:18:35;6.80;;;5.77;;
2564;SDS011;1292;48.020;7.822;2023-08-20T11:21:02;5.60;;;5.20;;
2564;SDS011;1292;48.020;7.822;2023-08-20T11:23:29;6.97;;;5.63;;
2564;SDS011;1292;48.020;7.822;2023-08-20T11:25:57;5.97;;;5.47;;
2564;SDS011;1292;48.020;7.822;2023-08-20T11:28:27;6.60;;;6.10;;
2564;SDS011;1292;48.020;7.822;2023-08-20T11:30:54;7.70;;;6.47;;
2564;SDS011;1292;48.020;7.822;2023-08-20T11:33:23;6.67;;;6.17;;
2564;SDS011;1292;48.020;7.822;2023-08-20T11:35:51;6.97;;;6.10;;
2564;SDS011;1292;48.020;7.822;2023-08-20T11:38:19;8.03;;;6.83;;
2564;SDS011;1292;48.020;7.822;2023-08-20T11:40:47;7.70;;;6.80;;
2564;SDS011;1292;48.020;7.822;2023-08-20T11:43:14;6.57;;;5.90;;
2564;SDS011;1292;48.020;7.822;2023-08-20T11:45:45;7.40;;;6.80;;
2564;SDS011;1292;48.020;7.822;2023-08-20T11:48:13;7.43;;;6.93;;
2564;SDS011;1292;48.020;7.822;2023-08-20T11:50:41;11.13;;;6.60;;
2564;SDS011;1292;48.020;7.822;2023-08-20T11:53:09;7.63;;;6.30;;
2564;SDS011;1292;48.020;7.822;2023-08-20T11:55:37;12.23;;;6.63;;
2564;SDS011;1292;48.020;7.822;2023-08-20T11:58:09;7.60;;;6.90;;
2564;SDS011;1292;48.020;7.822;2023-08-20T12:00:37;6.63;;;6.13;;
2564;SDS011;1292;48.020;7.822;2023-08-20T12:03:04;7.30;;;6.70;;
2564;SDS011;1292;48.020;7.822;2023-08-20T12:05:32;9.90;;;7.00;;
2564;SDS011;1292;48.020;7.822;2023-08-20T12:08:02;6.60;;;5.80;;
2564;SDS011;1292;48.020;7.822;2023-08-20T12:10:31;8.13;;;5.30;;
2564;SDS011;1292;48.020;7.822;2023-08-20T12:12:59;6.93;;;6.23;;
2564;SDS011;1292;48.020;7.822;2023-08-20T12:15:26;7.93;;;7.20;;
2564;SDS011;1292;48.020;7.822;2023-08-20T12:17:59;7.00;;;6.27;;
2564;SDS011;1292;48.020;7.822;2023-08-20T12:20:29;7.30;;;6.50;;
2564;SDS011;1292;48.020;7.822;2023-08-20T12:22:58;6.70;;;6.20;;
2564;SDS011;1292;48.020;7.822;2023-08-20T12:25:29;7.47;;;6.90;;
2564;SDS011;1292;48.020;7.822;2023-08-20T12:27:57;10.13;;;6.20;;
2564;SDS011;1292;48.020;7.822;2023-08-20T12:30:24;8.43;;;6.30;;
2564;SDS011;1292;48.020;7.822;2023-08-20T12:32:51;7.70;;;6.90;;
2564;SDS011;1292;48.020;7.822;2023-08-20T12:35:18;6.20;;;5.60;;
2564;SDS011;1292;48.020;7.822;2023-08-20T12:37:45;6.10;;;5.60;;
2564;SDS011;1292;48.020;7.822;2023-08-20T12:40:12;6.80;;;6.23;;
2564;SDS011;1292;48.020;7.822;2023-08-20T12:42:40;6.97;;;6.30;;
2564;SDS011;1292;48.020;7.822;2023-08-20T12:45:07;6.33;;;5.20;;
2564;SDS011;1292;48.020;7.822;2023-08-20T12:47:35;6.30;;;5.70;;
2564;SDS011;1292;48.020;7.822;2023-08-20T12:50:02;5.87;;;5.37;;
2564;SDS011;1292;48.020;7.822;2023-08-20T12:52:29;6.83;;;5.27;;
2564;SDS011;1292;48.020;7.822;2023-08-20T12:54:56;7.30;;;5.10;;
2564;SDS011;1292;48.020;7.822;2023-08-20T12:57:23;6.50;;;6.00;;
2564;SDS011;1292;48.020;7.822;2023-08-20T12:59:51;6.17;;;5.67;;
2564;SDS011;1292;48.020;7.822;2023-08-20T13:02:18;8.20;;;7.50;;
2564;SDS011;1292;48.020;7.822;2023-08-20T13:04:46;6.97;;;6.37;;
2564;SDS011;1292;48.020;7.822;2023-08-20T13:07:15;6.20;;;5.53;;
2564;SDS011;1292;48.020;7.822;2023-08-20T13:09:42;10.33;;;5.43;;
2564;SDS011;1292;48.020;7.822;2023-08-20T13:12:10;5.70;;;5.20;;
2564;SDS011;1292;48.020;7.822;2023-08-20T13:14:38;6.00;;;5.50;;
2564;SDS011;1292;48.020;7.822;2023-08-20T13:17:08;6.07;;;5.57;;
2564;SDS011;1292;48.020;7.822;2023-08-20T13:19:36;6.57;;;6.10;;
2564;SDS011;1292;48.020;7.822;2023-08-20T13:22:03;8.77;;;6.10;;
2564;SDS011;1292;48.020;7.822;2023-08-20T13:24:30;5.80;;;5.30;;
2564;SDS011;1292;48.020;7.822;2023-08-20T13:26:56;7.30;;;4.90;;
2564;SDS011;1292;48.020;7.822;2023-08-20T13:29:23;5.87;;;5.47;;
2564;SDS011;1292;48.020;7.822;2023-08-20T13:31:50;5.63;;;5.23;;
2564;SDS011;1292;48.020;7.822;2023-08-20T13:34:18;7.87;;;5.73;;
2564;SDS011;1292;48.020;7.822;2023-08-20T13:36:45;6.23;;;5.60;;
2564;SDS011;1292;48.020;7.822;2023-08-20T13:39:12;6.63;;;5.80;;
2564;SDS011;1292;48.020;7.822;2023-08-20T13:41:39;11.87;;;5.83;;
2564;SDS011;1292;48.020;7.822;2023-08-20T13:44:06;5.20;;;4.80;;
2564;SDS011;1292;48.020;7.822;2023-08-20T13:46:34;8.27;;;5.33;;
2564;SDS011;1292;48.020;7.822;2023-08-20T13:49:01;12.00;;;5.70;;
2564;SDS011;1292;48.020;7.822;2023-08-20T13:51:30;6.67;;;5.37;;
2564;SDS011;1292;48.020;7.822;2023-08-20T13:53:57;5.73;;;5.30;;
2564;SDS011;1292;48.020;7.822;2023-08-20T13:56:24;5.43;;;5.03;;
2564;SDS011;1292;48.020;7.822;2023-08-20T13:58:51;5.87;;;5.37;;
2564;SDS011;1292;48.020;7.822;2023-08-20T14:01:18;6.93;;;6.23;;
2564;SDS011;1292;48.020;7.822;2023-08-20T14:03:45;7.77;;;5.73;;
2564;SDS011;1292;48.020;7.822;2023-08-20T14:06:12;6.40;;;5.70;;
2564;SDS011;1292;48.020;7.822;2023-08-20T14:08:40;6.80;;;5.63;;
2564;SDS011;1292;48.020;7.822;2023-08-20T14:11:07;6.40;;;5.80;;
2564;SDS011;1292;48.020;7.822;2023-08-20T14:13:34;6.20;;;5.60;;
2564;SDS011;1292;48.020;7.822;2023-08-20T14:16:01;6.40;;;5.20;;
2564;SDS011;1292;48.020;7.822;2023-08-20T14:18:28;6.30;;;5.80;;
2564;SDS011;1292;48.020;7.822;2023-08-20T14:20:55;7.10;;;5.73;;
2564;SDS011;1292;48.020;7.822;2023-08-20T14:23:23;7.30;;;6.53;;
2564;SDS011;1292;48.020;7.822;2023-08-20T14:25:51;6.53;;;5.20;;
2564;SDS011;1292;48.020;7.822;2023-08-20T14:28:19;7.70;;;6.67;;
2564;SDS011;1292;48.020;7.822;2023-08-20T14:30:47;6.23;;;5.73;;
2564;SDS011;1292;48.020;7.822;2023-08-20T14:33:15;5.70;;;5.27;;
2564;SDS011;1292;48.020;7.822;2023-08-20T14:35:42;6.50;;;5.90;;
2564;SDS011;1292;48.020;7.822;2023-08-20T14:38:10;6.93;;;6.37;;
2564;SDS011;1292;48.020;7.822;2023-08-20T14:40:40;5.97;;;5.40;;
2564;SDS011;1292;48.020;7.822;2023-08-20T14:43:08;6.20;;;5.60;;
2564;SDS011;1292;48.020;7.822;2023-08-20T14:45:35;5.93;;;5.40;;
2564;SDS011;1292;48.020;7.822;2023-08-20T14:48:02;5.60;;;5.20;;
2564;SDS011;1292;48.020;7.822;2023-08-20T14:50:29;5.67;;;5.17;;
2564;SDS011;1292;48.020;7.822;2023-08-20T14:52:56;6.37;;;5.77;;
2564;SDS011;1292;48.020;7.822;2023-08-20T14:55:23;6.13;;;5.27;;
2564;SDS011;1292;48.020;7.822;2023-08-20T14:57:50;5.93;;;5.53;;
2564;SDS011;1292;48.020;7.822;2023-08-20T15:00:18;6.50;;;5.87;;
2564;SDS011;1292;48.020;7.822;2023-08-20T15:02:48;6.10;;;5.60;;
2564;SDS011;1292;48.020;7.822;2023-08-20T15:05:15;9.53;;;5.77;;
2564;SDS011;1292;48.020;7.822;2023-08-20T15:07:41;7.60;;;5.13;;
2564;SDS011;1292;48.020;7.822;2023-08-20T15:10:08;5.90;;;5.40;;
2564;SDS011;1292;48.020;7.822;2023-08-20T15:12:36;6.17;;;5.77;;
2564;SDS011;1292;48.020;7.822;2023-08-20T15:15:04;6.40;;;5.80;;
2564;SDS011;1292;48.020;7.822;2023-08-20T15:17:34;6.37;;;5.77;;
2564;SDS011;1292;48.020;7.822;2023-08-20T15:20:02;7.03;;;5.70;;
2564;SDS011;1292;48.020;7.822;2023-08-20T15:22:32;8.13;;;5.60;;
2564;SDS011;1292;48.020;7.822;2023-08-20T15:24:59;7.07;;;5.80;;
2564;SDS011;1292;48.020;7.822;2023-08-20T15:27:26;5.80;;;5.30;;
2564;SDS011;1292;48.020;7.822;2023-08-20T15:29:52;6.87;;;5.67;;
2564;SDS011;1292;48.020;7.822;2023-08-20T15:32:19;6.77;;;5.50;;
2564;SDS011;1292;48.020;7.822;2023-08-20T15:34:48;6.03;;;5.53;;
2564;SDS011;1292;48.020;7.822;2023-08-20T15:37:15;5.90;;;5.20;;
2564;SDS011;1292;48.020;7.822;2023-08-20T15:39:42;6.53;;;5.60;;
2564;SDS011;1292;48.020;7.822;2023-08-20T15:42:08;5.93;;;5.43;;
2564;SDS011;1292;48.020;7.822;2023-08-20T15:44:35;6.20;;;5.60;;
2564;SDS011;1292;48.020;7.822;2023-08-20T15:47:02;5.90;;;5.40;;
2564;SDS011;1292;48.020;7.822;2023-08-20T15:49:29;6.53;;;5.73;;
2564;SDS011;1292;48.020;7.822;2023-08-20T15:51:57;5.43;;;5.00;;
2564;SDS011;1292;48.020;7.822;2023-08-20T15:54:24;6.10;;;5.60;;
2564;SDS011;1292;48.020;7.822;2023-08-20T15:56:51;6.40;;;6.00;;
2564;SDS011;1292;48.020;7.822;2023-08-20T15:59:18;7.97;;;6.03;;
2564;SDS011;1292;48.020;7.822;2023-08-20T16:01:45;6.07;;;5.50;;
2564;SDS011;1292;48.020;7.822;2023-08-20T16:04:13;7.70;;;6.03;;
2564;SDS011;1292;48.020;7.822;2023-08-20T16:06:40;7.30;;;5.47;;
2564;SDS011;1292;48.020;7.822;2023-08-20T16:09:08;5.97;;;5.37;;
2564;SDS011;1292;48.020;7.822;2023-08-20T16:11:36;5.93;;;5.00;;
2564;SDS011;1292;48.020;7.822;2023-08-20T16:14:02;7.10;;;6.03;;
2564;SDS011;1292;48.020;7.822;2023-08-20T16:16:29;6.13;;;5.63;;
2564;SDS011;1292;48.020;7.822;2023-08-20T16:18:56;5.80;;;5.40;;
2564;SDS011;1292;48.020;7.822;2023-08-20T16:21:23;6.43;;;5.93;;
2564;SDS011;1292;48.020;7.822;2023-08-20T16:23:49;5.90;;;5.40;;
2564;SDS011;1292;48.020;7.822;2023-08-20T16:26:18;6.40;;;5.83;;
2564;SDS011;1292;48.020;7.822;2023-08-20T16:28:44;6.00;;;5.50;;
2564;SDS011;1292;48.020;7.822;2023-08-20T16:31:11;7.73;;;6.90;;
2564;SDS011;1292;48.020;7.822;2023-08-20T16:33:38;8.00;;;6.10;;
2564;SDS011;1292;48.020;7.822;2023-08-20T16:36:05;6.60;;;6.00;;
2564;SDS011;1292;48.020;7.822;2023-08-20T16:38:32;6.50;;;5.37;;
2564;SDS011;1292;48.020;7.822;2023-08-20T16:40:59;7.10;;;5.03;;
2564;SDS011;1292;48.020;7.822;2023-08-20T16:43:28;6.20;;;5.60;;
2564;SDS011;1292;48.020;7.822;2023-08-20T16:45:56;5.77;;;5.27;;
2564;SDS011;1292;48.020;7.822;2023-08-20T16:48:24;6.10;;;5.20;;
2564;SDS011;1292;48.020;7.822;2023-08-20T16:50:51;5.93;;;5.53;;
2564;SDS011;1292;48.020;7.822;2023-08-20T16:53:18;5.73;;;5.23;;
2564;SDS011;1292;48.020;7.822;2023-08-20T16:55:49;6.80;;;5.40;;
2564;SDS011;1292;48.020;7.822;2023-08-20T16:58:18;5.70;;;5.20;;
2564;SDS011;1292;48.020;7.822;2023-08-20T17:00:46;8.73;;;5.17;;
2564;SDS011;1292;48.020;7.822;2023-08-20T17:03:15;5.43;;;5.03;;
2564;SDS011;1292;48.020;7.822;2023-08-20T17:05:42;5.30;;;4.90;;
2564;SDS011;1292;48.020;7.822;2023-08-20T17:08:09;5.70;;;5.20;;
2564;SDS011;1292;48.020;7.822;2023-08-20T17:10:35;6.87;;;5.73;;
2564;SDS011;1292;48.020;7.822;2023-08-20T17:13:02;6.83;;;5.80;;
2564;SDS011;1292;48.020;7.822;2023-08-20T17:15:29;7.33;;;5.53;;
2564;SDS011;1292;48.020;7.822;2023-08-20T17:17:58;5.70;;;5.30;;
2564;SDS011;1292;48.020;7.822;2023-08-20T17:20:25;5.50;;;5.10;;
2564;SDS011;1292;48.020;7.822;2023-08-20T17:22:52;7.07;;;6.00;;
2564;SDS011;1292;48.020;7.822;2023-08-20T17:25:18;5.97;;;5.47;;
2564;SDS011;1292;48.020;7.822;2023-08-20T17:27:45;6.60;;;5.83;;
2564;SDS011;1292;48.020;7.822;2023-08-20T17:30:13;6.63;;;5.57;;
2564;SDS011;1292;48.020;7.822;2023-08-20T17:32:40;5.47;;;4.97;;
2564;SDS011;1292;48.020;7.822;2023-08-20T17:35:09;6.10;;;5.63;;
2564;SDS011;1292;48.020;7.822;2023-08-20T17:37:36;7.30;;;5.77;;
2564;SDS011;1292;48.020;7.822;2023-08-20T17:40:04;5.57;;;5.27;;
2564;SDS011;1292;48.020;7.822;2023-08-20T17:42:34;5.97;;;5.47;;
2564;SDS011;1292;48.020;7.822;2023-08-20T17:45:01;6.10;;;5.70;;
2564;SDS011;1292;48.020;7.822;2023-08-20T17:47:28;8.90;;;6.67;;
2564;SDS011;1292;48.020;7.822;2023-08-20T17:49:54;6.20;;;5.43;;
2564;SDS011;1292;48.020;7.822;2023-08-20T17:52:23;6.40;;;5.80;;
2564;SDS011;1292;48.020;7.822;2023-08-20T17:54:49;6.80;;;5.90;;
2564;SDS011;1292;48.020;7.822;2023-08-20T17:57:16;5.37;;;4.87;;
2564;SDS011;1292;48.020;7.822;2023-08-20T17:59:43;6.60;;;5.97;;
2564;SDS011;1292;48.020;7.822;2023-08-20T18:02:10;8.40;;;6.07;;
2564;SDS011;1292;48.020;7.822;2023-08-20T18:04:37;5.80;;;5.30;;
2564;SDS011;1292;48.020;7.822;2023-08-20T18:07:04;6.67;;;6.07;;
2564;SDS011;1292;48.020;7.822;2023-08-20T18:09:32;6.83;;;5.77;;
2564;SDS011;1292;48.020;7.822;2023-08-20T18:12:00;6.57;;;5.97;;
2564;SDS011;1292;48.020;7.822;2023-08-20T18:14:27;6.47;;;5.97;;
2564;SDS011;1292;48.020;7.822;2023-08-20T18:16:53;6.40;;;5.87;;
2564;SDS011;1292;48.020;7.822;2023-08-20T18:19:20;6.93;;;6.47;;
2564;SDS011;1292;48.020;7.822;2023-08-20T18:21:47;5.93;;;5.33;;
2564;SDS011;1292;48.020;7.822;2023-08-20T18:24:14;4.93;;;4.40;;
2564;SDS011;1292;48.020;7.822;2023-08-20T18:26:42;5.87;;;5.27;;
2564;SDS011;1292;48.020;7.822;2023-08-20T18:29:09;6.90;;;6.40;;
2564;SDS011;1292;48.020;7.822;2023-08-20T18:31:35;6.17;;;5.67;;
2564;SDS011;1292;48.020;7.822;2023-08-20T18:34:02;7.83;;;5.60;;
2564;SDS011;1292;48.020;7.822;2023-08-20T18:36:29;7.20;;;5.90;;
2564;SDS011;1292;48.020;7.822;2023-08-20T18:38:56;6.30;;;5.80;;
2564;SDS011;1292;48.020;7.822;2023-08-20T18:41:23;6.37;;;5.63;;
2564;SDS011;1292;48.020;7.822;2023-08-20T18:43:51;6.10;;;5.33;;
2564;SDS011;1292;48.020;7.822;2023-08-20T18:46:18;6.93;;;6.33;;
2564;SDS011;1292;48.020;7.822;2023-08-20T18:48:45;6.33;;;5.70;;
2564;SDS011;1292;48.020;7.822;2023-08-20T18:51:12;6.53;;;5.90;;
2564;SDS011;1292;48.020;7.822;2023-08-20T18:53:42;6.63;;;6.00;;
2564;SDS011;1292;48.020;7.822;2023-08-20T18:56:09;6.90;;;6.30;;
2564;SDS011;1292;48.020;7.822;2023-08-20T18:58:36;6.00;;;5.60;;
2564;SDS011;1292;48.020;7.822;2023-08-20T19:01:04;6.70;;;6.20;;
2564;SDS011;1292;48.020;7.822;2023-08-20T19:03:32;6.60;;;5.90;;
2564;SDS011;1292;48.020;7.822;2023-08-20T19:05:59;7.13;;;6.40;;
2564;SDS011;1292;48.020;7.822;2023-08-20T19:08:26;7.83;;;6.93;;
2564;SDS011;1292;48.020;7.822;2023-08-20T19:10:53;5.87;;;5.27;;
2564;SDS011;1292;48.020;7.822;2023-08-20T19:13:19;7.23;;;6.60;;
2564;SDS011;1292;48.020;7.822;2023-08-20T19:15:47;8.20;;;5.90;;
2564;SDS011;1292;48.020;7.822;2023-08-20T19:18:15;7.03;;;6.40;;
2564;SDS011;1292;48.020;7.822;2023-08-20T19:20:46;8.33;;;6.67;;
2564;SDS011;1292;48.020;7.822;2023-08-20T19:23:13;6.67;;;6.17;;
2564;SDS011;1292;48.020;7.822;2023-08-20T19:25:40;7.47;;;6.73;;
2564;SDS011;1292;48.020;7.822;2023-08-20T19:28:07;7.30;;;6.60;;
2564;SDS011;1292;48.020;7.822;2023-08-20T19:30:35;7.57;;;6.97;;
2564;SDS011;1292;48.020;7.822;2023-08-20T19:33:03;7.60;;;6.83;;
2564;SDS011;1292;48.020;7.822;2023-08-20T19:35:31;7.03;;;6.43;;
2564;SDS011;1292;48.020;7.822;2023-08-20T19:37:58;7.73;;;6.70;;
2564;SDS011;1292;48.020;7.822;2023-08-20T19:40:24;10.10;;;6.57;;
2564;SDS011;1292;48.020;7.822;2023-08-20T19:42:51;7.93;;;6.90;;
2564;SDS011;1292;48.020;7.822;2023-08-20T19:45:18;7.00;;;6.40;;
2564;SDS011;1292;48.020;7.822;2023-08-20T19:47:45;6.87;;;6.27;;
2564;SDS011;1292;48.020;7.822;2023-08-20T19:50:11;9.50;;;6.80;;
2564;SDS011;1292;48.020;7.822;2023-08-20T19:52:39;7.17;;;6.57;;
2564;SDS011;1292;48.020;7.822;2023-08-20T19:55:07;7.43;;;6.83;;
2564;SDS011;1292;48.020;7.822;2023-08-20T19:57:34;6.67;;;5.90;;
2564;SDS011;1292;48.020;7.822;2023-08-20T20:00:02;8.43;;;7.50;;
2564;SDS011;1292;48.020;7.822;2023-08-20T20:02:34;10.57;;;7.27;;
2564;SDS011;1292;48.020;7.822;2023-08-20T20:05:00;8.30;;;6.43;;
2564;SDS011;1292;48.020;7.822;2023-08-20T20:07:30;7.47;;;6.87;;
2564;SDS011;1292;48.020;7.822;2023-08-20T20:09:58;7.50;;;6.90;;
2564;SDS011;1292;48.020;7.822;2023-08-20T20:12:25;7.37;;;6.73;;
2564;SDS011;1292;48.020;7.822;2023-08-20T20:14:52;7.03;;;6.50;;
2564;SDS011;1292;48.020;7.822;2023-08-20T20:17:19;7.57;;;6.83;;
2564;SDS011;1292;48.020;7.822;2023-08-20T20:19:46;8.50;;;7.80;;
2564;SDS011;1292;48.020;7.822;2023-08-20T20:22:14;8.43;;;7.73;;
2564;SDS011;1292;48.020;7.822;2023-08-20T20:24:41;8.63;;;7.77;;
2564;SDS011;1292;48.020;7.822;2023-08-20T20:27:10;9.97;;;8.03;;
2564;SDS011;1292;48.020;7.822;2023-08-20T20:29:37;7.90;;;7.20;;
2564;SDS011;1292;48.020;7.822;2023-08-20T20:32:04;7.87;;;7.27;;
2564;SDS011;1292;48.020;7.822;2023-08-20T20:34:30;14.60;;;7.67;;
2564;SDS011;1292;48.020;7.822;2023-08-20T20:36:57;8.90;;;8.17;;
2564;SDS011;1292;48.020;7.822;2023-08-20T20:39:24;7.70;;;7.17;;
2564;SDS011;1292;48.020;7.822;2023-08-20T20:41:52;8.70;;;8.10;;
2564;SDS011;1292;48.020;7.822;2023-08-20T20:44:20;8.50;;;7.90;;
2564;SDS011;1292;48.020;7.822;2023-08-20T20:46:47;8.17;;;7.37;;
2564;SDS011;1292;48.020;7.822;2023-08-20T20:49:14;9.50;;;8.70;;
2564;SDS011;1292;48.020;7.822;2023-08-20T20:51:41;7.47;;;6.87;;
2564;SDS011;1292;48.020;7.822;2023-08-20T20:54:08;7.90;;;7.20;;
2564;SDS011;1292;48.020;7.822;2023-08-20T20:56:35;11.13;;;7.50;;
2564;SDS011;1292;48.020;7.822;2023-08-20T20:59:02;8.37;;;7.63;;
2564;SDS011;1292;48.020;7.822;2023-08-20T21:01:30;8.63;;;7.47;;
2564;SDS011;1292;48.020;7.822;2023-08-20T21:03:57;8.23;;;7.53;;
2564;SDS011;1292;48.020;7.822;2023-08-20T21:06:24;9.13;;;7.50;;
2564;SDS011;1292;48.020;7.822;2023-08-20T21:08:51;8.37;;;7.53;;